createdAt,value
2022-10-22T00:00:06.979Z,14.31
2022-10-22T00:02:36.129Z,14.32
2022-10-22T00:05:04.817Z,14.32
2022-10-22T00:07:33.059Z,14.32
2022-10-22T00:10:00.867Z,14.33
2022-10-22T00:12:29.413Z,14.33
2022-10-22T00:14:57.146Z,14.32
2022-10-22T00:17:24.922Z,14.30
2022-10-22T00:19:53.900Z,14.25
2022-10-22T00:22:21.560Z,14.21
2022-10-22T00:24:49.186Z,14.17
2022-10-22T00:27:16.795Z,14.12
2022-10-22T00:29:44.616Z,14.12
2022-10-22T00:32:12.359Z,14.10
2022-10-22T00:34:40.060Z,14.06
2022-10-22T00:37:09.197Z,14.04
2022-10-22T00:39:36.900Z,14.02
2022-10-22T00:42:05.133Z,13.96
2022-10-22T00:45:16.888Z,13.98
2022-10-22T00:47:49.626Z,14.00
2022-10-22T00:50:19.355Z,14.02
2022-10-22T00:52:48.758Z,14.01
2022-10-22T00:55:17.555Z,14.02
2022-10-22T00:57:46.804Z,14.00
2022-10-22T01:00:15.396Z,14.00
2022-10-22T01:02:43.689Z,14.06
2022-10-22T01:05:11.786Z,14.18
2022-10-22T01:07:43.383Z,14.28
2022-10-22T01:10:21.209Z,14.40
2022-10-22T01:12:58.739Z,14.46
2022-10-22T01:15:34.096Z,14.54
2022-10-22T01:18:07.139Z,14.54
2022-10-22T01:20:55.227Z,14.58
2022-10-22T01:23:46.928Z,14.53
2022-10-22T01:26:24.959Z,14.52
2022-10-22T01:29:03.417Z,14.48
2022-10-22T01:31:34.678Z,14.46
2022-10-22T01:34:04.260Z,14.46
2022-10-22T01:36:34.007Z,14.43
2022-10-22T01:39:03.351Z,14.41
2022-10-22T01:41:31.464Z,14.40
2022-10-22T01:44:00.544Z,14.40
2022-10-22T01:46:30.170Z,14.37
2022-10-22T01:49:17.727Z,14.36
2022-10-22T01:52:01.660Z,14.34
2022-10-22T01:54:37.341Z,14.34
2022-10-22T01:57:14.712Z,14.33
2022-10-22T01:59:54.050Z,14.31
2022-10-22T02:02:34.571Z,14.28
2022-10-22T02:05:06.573Z,14.27
2022-10-22T02:07:39.282Z,14.27
2022-10-22T02:10:10.219Z,14.24
2022-10-22T02:12:41.234Z,14.21
2022-10-22T02:15:13.634Z,14.18
2022-10-22T02:17:43.636Z,14.16
2022-10-22T02:20:16.819Z,14.14
2022-10-22T02:22:44.759Z,14.13
2022-10-22T02:25:13.079Z,14.11
2022-10-22T02:27:44.521Z,14.11
2022-10-22T02:30:17.617Z,14.10
2022-10-22T02:32:51.812Z,14.08
2022-10-22T02:35:22.799Z,14.09
2022-10-22T02:37:52.001Z,14.09
2022-10-22T02:40:20.777Z,14.08
2022-10-22T02:42:50.685Z,14.04
2022-10-22T02:45:21.600Z,14.02
2022-10-22T02:47:49.409Z,14.00
2022-10-22T02:50:17.199Z,13.99
2022-10-22T02:52:44.900Z,13.98
2022-10-22T02:55:12.654Z,13.95
2022-10-22T02:57:40.579Z,13.92
2022-10-22T03:00:10.411Z,13.89
2022-10-22T03:02:39.623Z,13.86
2022-10-22T03:05:08.343Z,13.84
2022-10-22T03:07:36.602Z,13.86
2022-10-22T03:10:04.727Z,13.87
2022-10-22T03:12:32.781Z,13.85
2022-10-22T03:15:00.462Z,13.85
2022-10-22T03:17:28.118Z,13.82
2022-10-22T03:19:57.129Z,13.81
2022-10-22T03:22:28.491Z,13.84
2022-10-22T03:25:00.050Z,13.87
2022-10-22T03:27:29.832Z,13.88
2022-10-22T03:29:59.097Z,13.87
2022-10-22T03:32:26.766Z,13.83
2022-10-22T03:34:54.533Z,13.82
2022-10-22T03:37:25.301Z,13.78
2022-10-22T03:39:53.945Z,13.73
2022-10-22T03:42:22.153Z,13.70
2022-10-22T03:44:49.863Z,13.68
2022-10-22T03:47:17.530Z,13.63
2022-10-22T03:49:45.263Z,13.59
2022-10-22T03:52:15.179Z,13.56
2022-10-22T03:54:44.960Z,13.53
2022-10-22T03:57:12.925Z,13.45
2022-10-22T03:59:43.046Z,13.44
2022-10-22T04:02:11.575Z,13.42
2022-10-22T04:04:39.847Z,13.38
2022-10-22T04:07:09.201Z,13.37
2022-10-22T04:09:37.147Z,13.27
2022-10-22T04:12:07.999Z,13.26
2022-10-22T04:14:35.633Z,13.27
2022-10-22T04:17:03.554Z,13.23
2022-10-22T04:19:31.200Z,13.19
2022-10-22T04:21:59.767Z,13.17
2022-10-22T04:24:27.952Z,13.14
2022-10-22T04:26:55.978Z,13.14
2022-10-22T04:29:25.731Z,13.15
2022-10-22T04:31:53.846Z,13.13
2022-10-22T04:34:21.627Z,13.14
2022-10-22T04:36:49.342Z,13.14
2022-10-22T04:39:17.078Z,13.12
2022-10-22T04:41:44.813Z,13.08
2022-10-22T04:44:16.842Z,13.07
2022-10-22T04:46:47.352Z,13.05
2022-10-22T04:49:15.066Z,13.06
2022-10-22T04:51:42.701Z,13.10
2022-10-22T04:54:10.450Z,13.10
2022-10-22T04:56:38.151Z,13.13
2022-10-22T04:59:07.731Z,13.14
2022-10-22T05:01:40.180Z,13.11
2022-10-22T05:04:13.820Z,13.10
2022-10-22T05:06:41.564Z,13.09
2022-10-22T05:09:13.570Z,13.01
2022-10-22T05:11:45.407Z,13.00
2022-10-22T05:14:14.342Z,12.99
2022-10-22T05:16:42.123Z,12.97
2022-10-22T05:19:17.209Z,12.93
2022-10-22T05:21:45.181Z,12.95
2022-10-22T05:24:12.952Z,12.97
2022-10-22T05:26:40.662Z,13.00
2022-10-22T05:29:08.492Z,13.01
2022-10-22T05:31:36.449Z,13.02
2022-10-22T05:34:04.127Z,13.04
2022-10-22T05:36:33.231Z,13.03
2022-10-22T05:39:01.097Z,13.04
2022-10-22T05:41:30.220Z,13.05
2022-10-22T05:43:58.977Z,13.05
2022-10-22T05:46:29.098Z,13.11
2022-10-22T05:48:58.334Z,13.13
2022-10-22T05:51:27.602Z,13.18
2022-10-22T05:53:58.713Z,13.20
2022-10-22T05:56:27.505Z,13.22
2022-10-22T05:58:55.302Z,13.23
2022-10-22T06:01:25.029Z,13.17
2022-10-22T06:03:55.549Z,13.10
2022-10-22T06:06:28.587Z,13.05
2022-10-22T06:09:02.429Z,12.98
2022-10-22T06:11:34.159Z,12.92
2022-10-22T06:14:02.901Z,12.88
2022-10-22T06:16:31.276Z,12.78
2022-10-22T06:19:00.778Z,12.70
2022-10-22T06:21:29.043Z,12.64
2022-10-22T06:23:59.304Z,12.64
2022-10-22T06:26:27.153Z,12.67
2022-10-22T06:28:56.132Z,12.70
2022-10-22T06:31:23.951Z,12.72
2022-10-22T06:33:51.669Z,12.68
2022-10-22T06:36:20.965Z,12.67
2022-10-22T06:38:48.719Z,12.64
2022-10-22T06:41:18.156Z,12.62
2022-10-22T06:43:47.557Z,12.58
2022-10-22T06:46:19.921Z,12.59
2022-10-22T06:48:49.916Z,12.64
2022-10-22T06:51:18.225Z,12.70
2022-10-22T06:53:46.291Z,12.77
2022-10-22T06:56:17.798Z,12.83
2022-10-22T06:58:48.431Z,12.88
2022-10-22T07:01:18.094Z,12.92
2022-10-22T07:03:45.914Z,12.99
2022-10-22T07:06:15.389Z,13.05
2022-10-22T07:08:43.423Z,13.11
2022-10-22T07:11:12.427Z,13.15
2022-10-22T07:13:42.017Z,13.20
2022-10-22T07:16:10.344Z,13.22
2022-10-22T07:18:40.279Z,13.24
2022-10-22T07:21:09.757Z,13.26
2022-10-22T07:23:38.022Z,13.29
2022-10-22T07:26:07.469Z,13.32
2022-10-22T07:28:36.524Z,13.38
2022-10-22T07:31:06.110Z,13.42
2022-10-22T07:33:34.245Z,13.59
2022-10-22T07:36:04.121Z,13.72
2022-10-22T07:38:32.576Z,13.79
2022-10-22T07:41:00.826Z,13.88
2022-10-22T07:43:28.801Z,14.06
2022-10-22T07:45:56.795Z,14.26
2022-10-22T07:48:25.945Z,14.39
2022-10-22T07:50:53.663Z,14.49
2022-10-22T07:53:22.237Z,14.53
2022-10-22T07:55:50.169Z,14.53
2022-10-22T07:58:18.109Z,14.51
2022-10-22T08:00:46.049Z,14.50
2022-10-22T08:03:14.992Z,14.55
2022-10-22T08:05:44.652Z,14.72
2022-10-22T08:08:12.930Z,15.03
2022-10-22T08:10:40.910Z,15.34
2022-10-22T08:13:09.486Z,15.68
2022-10-22T08:15:37.435Z,16.04
2022-10-22T08:18:05.708Z,16.40
2022-10-22T08:20:33.487Z,16.69
2022-10-22T08:23:02.904Z,16.84
2022-10-22T08:25:30.653Z,17.10
2022-10-22T08:27:58.440Z,17.41
2022-10-22T08:30:27.772Z,17.71
2022-10-22T08:32:55.476Z,17.76
2022-10-22T08:35:23.833Z,18.13
2022-10-22T08:37:51.607Z,18.08
2022-10-22T08:40:26.503Z,18.32
2022-10-22T08:43:40.408Z,18.56
2022-10-22T08:46:24.307Z,18.60
2022-10-22T08:48:54.939Z,18.92
2022-10-22T08:51:26.830Z,19.08
2022-10-22T08:54:14.713Z,19.17
2022-10-22T08:56:46.988Z,19.39
2022-10-22T08:59:21.248Z,19.63
2022-10-22T09:01:52.920Z,19.66
2022-10-22T09:04:26.473Z,20.03
2022-10-22T09:06:58.924Z,19.81
2022-10-22T09:09:31.891Z,20.08
2022-10-22T09:12:02.336Z,20.40
2022-10-22T09:14:31.421Z,20.45
2022-10-22T09:17:17.401Z,20.39
2022-10-22T09:19:59.504Z,20.58
2022-10-22T09:25:20.953Z,20.80
2022-10-22T09:27:52.485Z,20.76
2022-10-22T09:30:23.647Z,20.77
2022-10-22T09:32:53.279Z,20.91
2022-10-22T09:35:25.319Z,21.09
2022-10-22T09:37:55.010Z,21.14
2022-10-22T09:40:23.599Z,21.06
2022-10-22T09:42:52.720Z,21.26
2022-10-22T09:45:22.676Z,21.45
2022-10-22T09:48:01.537Z,21.50
2022-10-22T09:50:38.087Z,21.53
2022-10-22T09:53:13.620Z,21.57
2022-10-22T09:55:42.645Z,21.67
2022-10-22T09:58:14.685Z,21.76
2022-10-22T10:00:46.855Z,21.85
2022-10-22T10:03:19.562Z,21.69
2022-10-22T10:05:49.319Z,21.91
2022-10-22T10:08:18.645Z,21.96
2022-10-22T10:10:49.408Z,21.98
2022-10-22T10:13:39.659Z,21.90
2022-10-22T10:16:17.232Z,22.13
2022-10-22T10:18:58.201Z,22.26
2022-10-22T10:21:36.408Z,22.37
2022-10-22T10:24:22.086Z,22.52
2022-10-22T10:26:58.615Z,22.50
2022-10-22T10:29:42.096Z,22.63
2022-10-22T10:32:28.895Z,22.74
2022-10-22T10:35:12.531Z,22.95
2022-10-22T10:37:47.368Z,22.95
2022-10-22T10:40:28.185Z,22.91
2022-10-22T10:43:01.292Z,22.98
2022-10-22T10:45:39.839Z,22.96
2022-10-22T10:48:46.625Z,22.96
2022-10-22T10:51:28.792Z,22.98
2022-10-22T10:54:15.068Z,23.07
2022-10-22T10:56:48.349Z,23.24
2022-10-22T10:59:23.892Z,22.87
2022-10-22T11:02:11.536Z,22.46
2022-10-22T11:05:01.164Z,22.64
2022-10-22T11:07:35.729Z,22.73
2022-10-22T11:10:11.281Z,22.94
2022-10-22T11:12:43.424Z,23.04
2022-10-22T11:15:22.896Z,23.09
2022-10-22T11:17:54.158Z,23.05
2022-10-22T11:20:26.735Z,23.25
2022-10-22T11:23:18.997Z,23.22
2022-10-22T11:25:49.774Z,23.05
2022-10-22T11:28:23.103Z,22.74
2022-10-22T11:30:57.902Z,22.59
2022-10-22T11:33:37.896Z,22.51
2022-10-22T11:36:07.485Z,22.14
2022-10-22T11:38:36.767Z,22.05
2022-10-22T11:41:08.923Z,21.78
2022-10-22T11:43:54.084Z,21.81
2022-10-22T11:46:35.846Z,21.66
2022-10-22T11:49:16.943Z,21.62
2022-10-22T11:51:46.685Z,21.51
2022-10-22T11:54:31.799Z,21.48
2022-10-22T11:57:19.422Z,21.46
2022-10-22T11:59:51.550Z,21.43
2022-10-22T12:02:44.381Z,21.51
2022-10-22T12:05:36.262Z,21.50
2022-10-22T12:08:17.049Z,21.54
2022-10-22T12:10:58.650Z,21.51
2022-10-22T12:13:29.597Z,21.54
2022-10-22T12:15:59.969Z,21.57
2022-10-22T12:18:32.831Z,21.64
2022-10-22T12:21:02.002Z,21.72
2022-10-22T12:23:35.231Z,21.75
2022-10-22T12:26:05.299Z,21.63
2022-10-22T12:28:40.515Z,21.61
2022-10-22T12:31:16.913Z,21.79
2022-10-22T12:33:44.855Z,21.98
2022-10-22T12:36:19.121Z,22.05
2022-10-22T12:38:48.229Z,22.08
2022-10-22T12:41:16.110Z,22.07
2022-10-22T12:43:43.841Z,22.14
2022-10-22T12:46:13.933Z,22.46
2022-10-22T12:48:45.932Z,22.75
2022-10-22T12:51:20.582Z,22.62
2022-10-22T12:53:50.669Z,22.81
2022-10-22T12:56:23.501Z,22.62
2022-10-22T12:58:56.482Z,22.34
2022-10-22T13:01:28.078Z,22.32
2022-10-22T13:04:08.066Z,22.37
2022-10-22T13:06:37.363Z,22.25
2022-10-22T13:09:14.548Z,22.13
2022-10-22T13:11:49.574Z,21.96
2022-10-22T13:14:21.540Z,21.90
2022-10-22T13:17:07.179Z,21.77
2022-10-22T13:19:40.487Z,21.65
2022-10-22T13:22:29.561Z,21.53
2022-10-22T13:24:59.924Z,21.41
2022-10-22T13:27:29.828Z,21.24
2022-10-22T13:30:01.606Z,21.18
2022-10-22T13:32:31.999Z,21.12
2022-10-22T13:35:01.226Z,21.07
2022-10-22T13:37:34.080Z,21.01
2022-10-22T13:40:02.039Z,20.99
2022-10-22T13:42:29.913Z,20.96
2022-10-22T13:44:57.724Z,20.96
2022-10-22T13:47:28.945Z,20.91
2022-10-22T13:50:01.137Z,20.81
2022-10-22T13:52:36.028Z,20.71
2022-10-22T13:55:14.158Z,20.67
2022-10-22T13:57:41.932Z,20.62
2022-10-22T14:00:13.281Z,20.62
2022-10-22T14:02:41.868Z,20.62
2022-10-22T14:05:11.284Z,20.63
2022-10-22T14:07:41.266Z,20.64
2022-10-22T14:10:17.543Z,20.65
2022-10-22T14:12:49.282Z,20.66
2022-10-22T14:15:20.830Z,20.64
2022-10-22T14:17:51.546Z,20.58
2022-10-22T14:20:22.231Z,20.56
2022-10-22T14:22:52.476Z,20.50
2022-10-22T14:25:22.740Z,20.61
2022-10-22T14:27:51.100Z,20.93
2022-10-22T14:30:21.123Z,21.34
2022-10-22T14:32:49.426Z,21.53
2022-10-22T14:35:19.830Z,21.46
2022-10-22T14:37:47.833Z,21.53
2022-10-22T14:40:20.288Z,21.75
2022-10-22T14:42:48.662Z,22.16
2022-10-22T14:45:19.513Z,22.42
2022-10-22T14:47:47.259Z,22.52
2022-10-22T14:50:15.358Z,22.72
2022-10-22T14:52:44.435Z,22.83
2022-10-22T14:55:14.280Z,22.87
2022-10-22T14:57:43.769Z,22.63
2022-10-22T15:00:14.660Z,22.43
2022-10-22T15:02:42.654Z,22.34
2022-10-22T15:05:10.927Z,22.25
2022-10-22T15:07:39.688Z,22.07
2022-10-22T15:10:09.038Z,21.89
2022-10-22T15:12:37.637Z,21.65
2022-10-22T15:15:08.325Z,21.43
2022-10-22T15:17:36.311Z,21.24
2022-10-22T15:20:05.591Z,21.09
2022-10-22T15:22:35.317Z,20.90
2022-10-22T15:25:04.716Z,20.73
2022-10-22T15:27:32.546Z,20.59
2022-10-22T15:30:00.442Z,20.49
2022-10-22T15:32:29.937Z,20.41
2022-10-22T15:34:57.713Z,20.31
2022-10-22T15:37:25.616Z,20.23
2022-10-22T15:39:53.680Z,20.08
2022-10-22T15:42:23.308Z,19.99
2022-10-22T15:44:57.992Z,19.83
2022-10-22T15:47:28.530Z,19.73
2022-10-22T15:49:57.669Z,19.67
2022-10-22T15:52:25.483Z,19.57
2022-10-22T15:54:53.359Z,19.45
2022-10-22T15:57:21.058Z,19.36
2022-10-22T15:59:50.128Z,19.30
2022-10-22T16:02:18.069Z,19.23
2022-10-22T16:04:45.902Z,19.16
2022-10-22T16:07:15.129Z,19.06
2022-10-22T16:09:42.962Z,19.00
2022-10-22T16:12:12.185Z,18.92
2022-10-22T16:14:42.131Z,18.82
2022-10-22T16:17:10.097Z,18.74
2022-10-22T16:19:37.804Z,18.66
2022-10-22T16:22:05.617Z,18.58
2022-10-22T16:24:34.725Z,18.48
2022-10-22T16:27:03.410Z,18.41
2022-10-22T16:29:31.187Z,18.35
2022-10-22T16:31:59.201Z,18.29
2022-10-22T16:34:27.640Z,18.24
2022-10-22T16:36:57.104Z,18.18
2022-10-22T16:39:25.043Z,18.11
2022-10-22T16:41:54.412Z,18.06
2022-10-22T16:44:22.188Z,18.00
2022-10-22T16:46:49.940Z,17.95
2022-10-22T16:49:17.758Z,17.88
2022-10-22T16:51:45.711Z,17.85
2022-10-22T16:54:15.597Z,17.79
2022-10-22T16:56:43.421Z,17.73
2022-10-22T16:59:12.557Z,17.69
2022-10-22T17:01:41.415Z,17.63
2022-10-22T17:04:09.721Z,17.57
2022-10-22T17:06:38.045Z,17.53
2022-10-22T17:09:06.079Z,17.43
2022-10-22T17:11:36.377Z,17.35
2022-10-22T17:14:06.815Z,17.20
2022-10-22T17:16:36.026Z,17.07
2022-10-22T17:19:05.793Z,16.97
2022-10-22T17:21:33.968Z,16.91
2022-10-22T17:24:01.726Z,16.83
2022-10-22T17:26:30.537Z,16.75
2022-10-22T17:28:58.753Z,16.68
2022-10-22T17:31:27.997Z,16.62
2022-10-22T17:33:57.983Z,16.55
2022-10-22T17:36:26.161Z,16.47
2022-10-22T17:38:57.455Z,16.40
2022-10-22T17:41:28.088Z,16.32
2022-10-22T17:43:56.922Z,16.25
2022-10-22T17:46:26.661Z,16.21
2022-10-22T17:48:57.764Z,16.17
2022-10-22T17:51:27.295Z,16.07
2022-10-22T17:53:55.337Z,16.02
2022-10-22T17:56:25.517Z,15.97
2022-10-22T17:58:54.029Z,15.92
2022-10-22T18:01:23.984Z,15.85
2022-10-22T18:03:53.486Z,15.80
2022-10-22T18:06:23.468Z,15.73
2022-10-22T18:08:51.280Z,15.66
2022-10-22T18:11:21.031Z,15.61
2022-10-22T18:13:50.823Z,15.55
2022-10-22T18:16:18.768Z,15.46
2022-10-22T18:18:46.822Z,15.41
2022-10-22T18:21:15.582Z,15.34
2022-10-22T18:23:45.029Z,15.30
2022-10-22T18:26:12.865Z,15.25
2022-10-22T18:28:40.737Z,15.20
2022-10-22T18:31:10.256Z,15.14
2022-10-22T18:33:38.807Z,15.06
2022-10-22T18:36:08.719Z,14.97
2022-10-22T18:38:38.163Z,14.95
2022-10-22T18:41:09.415Z,14.93
2022-10-22T18:43:37.918Z,14.91
2022-10-22T18:46:07.930Z,14.90
2022-10-22T18:48:36.146Z,14.94
2022-10-22T18:51:07.315Z,14.96
2022-10-22T18:53:35.462Z,14.96
2022-10-22T18:56:05.436Z,14.94
2022-10-22T18:58:39.080Z,14.92
2022-10-22T19:01:10.406Z,14.88
2022-10-22T19:03:38.442Z,14.85
2022-10-22T19:06:06.712Z,14.87
2022-10-22T19:08:36.491Z,14.89
2022-10-22T19:11:11.293Z,14.92
2022-10-22T19:13:40.810Z,14.92
2022-10-22T19:16:12.271Z,14.90
2022-10-22T19:18:40.337Z,14.88
2022-10-22T19:21:08.135Z,14.86
2022-10-22T19:23:36.283Z,14.86
2022-10-22T19:26:06.947Z,14.85
2022-10-22T19:28:35.144Z,14.73
2022-10-22T19:31:06.198Z,14.60
2022-10-22T19:33:34.805Z,14.53
2022-10-22T19:36:05.515Z,14.53
2022-10-22T19:38:33.548Z,14.51
2022-10-22T19:41:01.400Z,14.49
2022-10-22T19:43:29.716Z,14.46
2022-10-22T19:45:57.623Z,14.39
2022-10-22T19:48:28.725Z,14.32
2022-10-22T19:51:02.751Z,14.26
2022-10-22T19:53:31.104Z,14.20
2022-10-22T19:55:59.686Z,14.09
2022-10-22T19:58:28.323Z,14.02
2022-10-22T20:00:56.321Z,13.99
2022-10-22T20:03:24.179Z,13.94
2022-10-22T20:05:53.476Z,13.88
2022-10-22T20:08:21.307Z,13.85
2022-10-22T20:10:49.763Z,13.83
2022-10-22T20:13:18.449Z,13.80
2022-10-22T20:15:48.773Z,13.73
2022-10-22T20:18:16.928Z,13.71
2022-10-22T20:20:44.937Z,13.73
2022-10-22T20:23:14.161Z,13.71
2022-10-22T20:25:42.854Z,13.71
2022-10-22T20:28:10.772Z,13.70
2022-10-22T20:30:42.137Z,13.66
2022-10-22T20:33:09.915Z,13.64
2022-10-22T20:35:38.361Z,13.64
2022-10-22T20:38:07.391Z,13.61
2022-10-22T20:40:37.599Z,13.59
2022-10-22T20:43:05.929Z,13.54
2022-10-22T20:45:36.530Z,13.51
2022-10-22T20:48:05.513Z,13.44
2022-10-22T20:50:33.658Z,13.44
2022-10-22T20:53:01.401Z,13.46
2022-10-22T20:55:29.200Z,13.46
2022-10-22T20:57:58.311Z,13.44
2022-10-22T21:00:27.136Z,13.44
2022-10-22T21:02:54.887Z,13.42
2022-10-22T21:05:22.635Z,13.42
2022-10-22T21:07:50.476Z,13.40
2022-10-22T21:10:18.287Z,13.39
2022-10-22T21:12:45.986Z,13.37
2022-10-22T21:15:15.167Z,13.34
2022-10-22T21:17:42.884Z,13.32
2022-10-22T21:22:43.884Z,13.27
2022-10-22T21:25:11.853Z,13.26
2022-10-22T21:27:39.555Z,13.23
2022-10-22T21:30:08.231Z,13.18
2022-10-22T21:32:37.330Z,13.13
2022-10-22T21:35:05.506Z,13.11
2022-10-22T21:37:35.057Z,13.07
2022-10-22T21:40:03.807Z,13.06
2022-10-22T21:42:31.630Z,13.02
2022-10-22T21:44:59.431Z,12.98
2022-10-22T21:47:27.318Z,12.95
2022-10-22T21:49:56.446Z,12.90
2022-10-22T21:52:24.207Z,12.89
2022-10-22T21:54:51.934Z,12.87
2022-10-22T21:57:19.581Z,12.85
2022-10-22T21:59:47.580Z,12.84
2022-10-22T22:02:15.329Z,12.84
2022-10-22T22:04:43.096Z,12.82
2022-10-22T22:07:12.211Z,12.77
2022-10-22T22:09:40.061Z,12.74
2022-10-22T22:12:07.789Z,12.72
2022-10-22T22:14:36.633Z,12.68
2022-10-22T22:17:04.439Z,12.65
2022-10-22T22:19:32.094Z,12.62
2022-10-22T22:21:59.796Z,12.56
2022-10-22T22:24:29.452Z,12.52
2022-10-22T22:26:57.283Z,12.44
2022-10-22T22:29:24.965Z,12.41
2022-10-22T22:31:52.754Z,12.38
2022-10-22T22:34:20.510Z,12.33
2022-10-22T22:36:49.359Z,12.31
2022-10-22T22:39:19.710Z,12.29
2022-10-22T22:41:48.769Z,12.27
2022-10-22T22:44:16.649Z,12.29
2022-10-22T22:46:44.724Z,12.27
2022-10-22T22:49:13.319Z,12.30
2022-10-22T22:51:41.108Z,12.29
2022-10-22T22:54:08.852Z,12.30
2022-10-22T22:56:36.764Z,12.32
2022-10-22T22:59:07.096Z,12.32
2022-10-22T23:01:36.830Z,12.31
2022-10-22T23:04:07.123Z,12.30
2022-10-22T23:06:37.643Z,12.28
2022-10-22T23:09:06.177Z,12.23
2022-10-22T23:11:34.694Z,12.22
2022-10-22T23:14:04.554Z,12.12
2022-10-22T23:16:36.689Z,12.06
2022-10-22T23:19:05.880Z,11.99
2022-10-22T23:21:36.559Z,11.89
2022-10-22T23:24:07.582Z,11.86
2022-10-22T23:26:37.958Z,11.81
2022-10-22T23:29:07.679Z,11.80
2022-10-22T23:31:36.785Z,11.76
2022-10-22T23:34:04.553Z,11.73
2022-10-22T23:36:32.273Z,11.72
2022-10-22T23:39:00.108Z,11.68
2022-10-22T23:41:27.781Z,11.66
2022-10-22T23:43:55.444Z,11.64
2022-10-22T23:46:23.234Z,11.65
2022-10-22T23:48:53.741Z,11.64
2022-10-22T23:51:22.104Z,11.65
2022-10-22T23:53:55.932Z,11.64
2022-10-22T23:56:23.937Z,11.63
2022-10-22T23:58:52.558Z,11.64
